Belle Plaine, Kansas
Current Conditions -  °F | °C
As of 6:58 PM on Monday 20 Oct 2014 (Local Time) from KIAB Reporting Station
Clear Clear  
Wind Chill: 73°   Ceiling: Unl
Heat Index: 73°   Visibility: 10mi
Dew Point: 44°   Wind: 0mph
Humidity: 36%   Direction: NA
Pressure: 30.04"   Gusts: NA
Location:  37.39°N, 97.28°W
Report Text: KIAB 202358Z AUTO 00000KT 10SM CLR 23/07 A3004 RMK AO2 SLP169 60000 T02260068 10268 20226 53004
Loading
Personal Weather Stations






























Interactive Weather Map
Tropical Storm Tracking
New forecast layout! Learn more

10-Day Weather Forecast

Advertisements
Track Severe Weather on mobile